Aeroporto :
LOGIN :

Iscrizione | Disclaimer

   EN    FR    IT 

 










Sommario :    VFR   VFR Marginale   IFR   IFR Intensivo   IFR Molto Intensivo
Visibilità : 
Base nubi : 
>= 8 km
>= 3000ft
5 / 8 km
1000 / 3000 ft
1500m / 5 km
500 / 1000 ft
800 / 1500m
200 / 500 ft
< 800m
< 200 ft
Simboli :   Temporali  Nebbia  Neve Forte  Precipitazioni Forti  Vento > 20 kt
SIGMETs :   Varie  Temporali  Ghiacco  Turbolenza  Onda orograficha  Ceneri Vulcaniche






- Altitudine del aeroporto : 755 ft
- Codice IATA : KSC


LZKZ - Kosice

ULTIMO METAR :
  • 230200Z 21002KT CAVOK 18/16 Q1015 NOSIG

METARs OBSOLETI :
  • 230130Z VRB02KT CAVOK 19/16 Q1015 NOSIG
  • 230100Z 20003KT 180V240 CAVOK 20/16 Q1014 NOSIG
  • 230030Z 06006KT CAVOK 20/16 Q1014 NOSIG
  • 230000Z 03003KT CAVOK 21/16 Q1015 NOSIG
  • 222330Z VRB01KT CAVOK 20/16 Q1014 NOSIG
  • 222300Z 07005KT CAVOK 20/16 Q1014 NOSIG
  • 222230Z 11005KT CAVOK 20/16 Q1014 NOSIG
  • 222200Z 03004KT CAVOK 22/17 Q1014 NOSIG
  • 222130Z VRB02KT CAVOK 23/16 Q1014 NOSIG

TAF TAF LZKZ
Valido dal 23 a 00 ore il 24 a 00 ore UTC


222315Z 2300/2400 03004KT CAVOK
BECMG 2301/2303 02012KT
PROB40
TEMPO 2313/2319 34015G25KT 9999 TSRA FEW030CB BKN040



MetMap, La meteo Aeronautica in un colpo d'occhio ! - Copyright ORBIFLY Dicembre 2007 - Disclaimer

ORBIFLY MET'MAP TEAM :

Programmazione e sviluppo : Alexandra Zaïnal
Concezione : Baudouin d'Aumeries
Supporto tecnico e logistico : Manuel Goepfert
Aiuto : Marc-Olivier Méhu
Aiuto per la traduzione : Arnaldo La Scala




FONTI E CREDITI :

   NOAA